createdAt,value
2023-02-11T00:02:52.798Z,85.54
2023-02-11T00:07:52.797Z,85.02
2023-02-11T00:12:52.683Z,84.72
2023-02-11T00:17:52.622Z,85.02
2023-02-11T00:22:52.580Z,85.99
2023-02-11T00:27:52.541Z,85.37
2023-02-11T00:32:52.510Z,85.89
2023-02-11T00:37:52.414Z,85.13
2023-02-11T00:42:52.319Z,85.27
2023-02-11T00:47:52.349Z,85.68
2023-02-11T00:52:52.339Z,86.30
2023-02-11T00:57:52.289Z,85.99
2023-02-11T01:02:52.216Z,85.54
2023-02-11T01:07:52.136Z,85.64
2023-02-11T01:12:52.052Z,85.75
2023-02-11T01:17:52.066Z,84.88
2023-02-11T01:22:51.933Z,85.60
2023-02-11T01:27:51.870Z,85.09
2023-02-11T01:32:51.820Z,84.99
2023-02-11T01:37:51.939Z,84.88
2023-02-11T01:42:51.682Z,84.84
2023-02-11T01:47:51.736Z,84.74
2023-02-11T01:52:51.569Z,84.01
2023-02-11T01:57:51.541Z,84.88
2023-02-11T02:02:51.514Z,84.94
2023-02-11T02:07:51.534Z,85.09
2023-02-11T02:12:51.382Z,84.43
2023-02-11T02:17:51.481Z,84.88
2023-02-11T02:22:51.413Z,84.33
2023-02-11T02:27:51.210Z,85.09
2023-02-11T02:32:51.190Z,85.39
2023-02-11T02:37:52.286Z,84.94
2023-02-11T02:42:51.032Z,84.84
2023-02-11T02:47:51.096Z,85.36
2023-02-11T02:52:50.928Z,85.71
2023-02-11T02:57:50.894Z,85.36
2023-02-11T03:02:50.845Z,85.36
2023-02-11T03:07:50.781Z,86.32
2023-02-11T03:12:50.727Z,85.81
2023-02-11T03:17:50.720Z,86.22
2023-02-11T03:22:50.598Z,85.50
2023-02-11T03:27:50.539Z,85.60
2023-02-11T03:32:50.521Z,85.30
2023-02-11T03:37:50.419Z,85.05
2023-02-11T03:42:50.407Z,85.39
2023-02-11T03:47:50.383Z,85.60
2023-02-11T03:52:50.352Z,85.71
2023-02-11T03:57:50.232Z,86.02
2023-02-11T04:02:50.206Z,86.94
2023-02-11T04:07:50.111Z,86.94
2023-02-11T04:12:50.050Z,87.40
2023-02-11T04:17:50.002Z,86.63
2023-02-11T04:22:49.980Z,86.78
2023-02-11T04:27:49.952Z,87.19
2023-02-11T04:32:49.876Z,86.94
2023-02-11T04:37:49.869Z,86.94
2023-02-11T04:42:49.773Z,87.92
2023-02-11T04:47:49.707Z,87.56
2023-02-11T04:52:49.804Z,89.25
2023-02-11T04:57:49.647Z,89.05
2023-02-11T05:02:49.546Z,88.90
2023-02-11T05:07:49.505Z,88.84
2023-02-11T05:12:49.415Z,89.87
2023-02-11T05:17:49.469Z,89.87
2023-02-11T05:22:49.346Z,90.19
2023-02-11T05:27:49.269Z,90.19
2023-02-11T05:32:49.257Z,90.08
2023-02-11T05:37:58.551Z,90.59
2023-02-11T05:42:49.085Z,90.80
2023-02-11T05:47:49.069Z,90.39
2023-02-11T05:52:49.066Z,91.01
2023-02-11T05:57:48.984Z,90.76
2023-02-11T06:02:48.953Z,90.66
2023-02-11T06:07:48.859Z,90.86
2023-02-11T06:12:48.763Z,91.01
2023-02-11T06:17:48.706Z,91.63
2023-02-11T06:22:48.725Z,91.01
2023-02-11T06:27:48.783Z,91.11
2023-02-11T06:32:48.874Z,91.22
2023-02-11T06:37:48.723Z,91.17
2023-02-11T06:42:48.630Z,90.97
2023-02-11T06:47:48.525Z,91.01
2023-02-11T06:52:48.356Z,91.94
2023-02-11T06:57:48.295Z,92.04
2023-02-11T07:02:48.303Z,91.52
2023-02-11T07:07:48.250Z,91.38
2023-02-11T07:12:48.211Z,91.17
2023-02-11T07:17:48.151Z,91.73
2023-02-11T07:22:49.149Z,92.14
2023-02-11T07:27:48.092Z,92.21
2023-02-11T07:32:48.403Z,92.10
2023-02-11T07:37:47.887Z,92.04
2023-02-11T07:42:47.878Z,92.21
2023-02-11T07:47:48.731Z,92.10
2023-02-11T07:52:47.704Z,91.79
2023-02-11T07:57:47.678Z,91.69
2023-02-11T08:02:47.661Z,92.10
2023-02-11T08:07:47.551Z,92.21
2023-02-11T08:12:47.499Z,92.21
2023-02-11T08:17:47.449Z,92.51
2023-02-11T08:22:47.451Z,92.47
2023-02-11T08:27:47.320Z,92.37
2023-02-11T08:32:47.247Z,92.57
2023-02-11T08:37:47.358Z,92.78
2023-02-11T08:42:47.230Z,92.37
2023-02-11T08:47:47.112Z,92.22
2023-02-11T08:52:47.050Z,91.81
2023-02-11T08:57:47.023Z,91.46
2023-02-11T09:02:47.006Z,91.81
2023-02-11T09:07:47.034Z,91.91
2023-02-11T09:12:47.034Z,91.40
2023-02-11T09:17:46.909Z,91.66
2023-02-11T09:22:46.786Z,91.05
2023-02-11T09:27:46.689Z,91.11
2023-02-11T09:32:46.639Z,90.80
2023-02-11T09:37:46.538Z,90.69
2023-02-11T09:42:46.578Z,90.39
2023-02-11T09:47:46.469Z,90.90
2023-02-11T09:52:46.433Z,91.00
2023-02-11T09:57:46.398Z,90.45
2023-02-11T10:02:46.376Z,90.34
2023-02-11T10:07:46.316Z,89.94
2023-02-11T10:12:46.238Z,90.14
2023-02-11T10:17:46.161Z,89.94
2023-02-11T10:22:46.111Z,89.79
2023-02-11T10:27:46.040Z,89.58
2023-02-11T10:32:45.958Z,89.58
2023-02-11T10:37:47.091Z,89.44
2023-02-11T10:42:45.994Z,88.82
2023-02-11T10:47:45.910Z,88.92
2023-02-11T10:52:45.877Z,88.92
2023-02-11T10:57:45.776Z,88.92
2023-02-11T11:02:45.680Z,88.92
2023-02-11T11:07:45.731Z,88.72
2023-02-11T11:12:45.685Z,88.78
2023-02-11T11:17:45.601Z,88.51
2023-02-11T11:22:45.730Z,88.78
2023-02-11T11:27:45.354Z,88.68
2023-02-11T11:32:45.340Z,88.17
2023-02-11T11:37:45.303Z,88.41
2023-02-11T11:42:54.059Z,87.96
2023-02-11T11:47:45.156Z,88.06
2023-02-11T11:52:45.153Z,87.65
2023-02-11T11:57:45.065Z,88.27
2023-02-11T12:02:45.180Z,87.96
2023-02-11T12:07:45.051Z,87.65
2023-02-11T12:12:46.844Z,87.92
2023-02-11T12:17:44.849Z,87.82
2023-02-11T12:22:44.792Z,88.02
2023-02-11T12:27:44.808Z,87.92
2023-02-11T12:32:44.822Z,88.27
2023-02-11T12:37:44.641Z,88.17
2023-02-11T12:42:44.610Z,88.37
2023-02-11T12:47:44.494Z,88.53
2023-02-11T12:52:44.474Z,87.67
2023-02-11T12:57:44.364Z,87.37
2023-02-11T13:02:44.363Z,87.88
2023-02-11T13:07:44.250Z,87.57
2023-02-11T13:12:44.223Z,87.82
2023-02-11T13:17:44.168Z,87.20
2023-02-11T13:22:44.110Z,87.32
2023-02-11T13:27:44.062Z,86.71
2023-02-11T13:32:44.060Z,86.50
2023-02-11T13:37:43.997Z,86.36
2023-02-11T13:42:43.974Z,86.60
2023-02-11T13:47:43.808Z,86.25
2023-02-11T13:52:43.778Z,85.95
2023-02-11T13:57:43.734Z,86.05
2023-02-11T14:02:44.850Z,85.85
2023-02-11T14:07:43.667Z,86.50
2023-02-11T14:12:43.573Z,86.30
2023-02-11T14:17:43.597Z,86.05
2023-02-11T14:22:43.432Z,86.30
2023-02-11T14:27:43.559Z,86.05
2023-02-11T14:32:43.378Z,86.25
2023-02-11T14:37:43.301Z,86.05
2023-02-11T14:42:43.321Z,86.15
2023-02-11T14:47:43.270Z,85.95
2023-02-11T14:52:43.150Z,85.95
2023-02-11T14:57:43.117Z,85.71
2023-02-11T15:02:43.020Z,85.95
2023-02-11T15:07:43.006Z,85.80
2023-02-11T15:12:42.914Z,85.80
2023-02-11T15:17:42.885Z,85.19
2023-02-11T15:22:42.884Z,84.74
2023-02-11T15:27:42.751Z,84.53
2023-02-11T15:32:42.721Z,84.53
2023-02-11T15:37:43.668Z,84.23
2023-02-11T15:42:52.516Z,85.33
2023-02-11T15:47:43.516Z,85.64
2023-02-11T15:52:42.461Z,86.30
2023-02-11T15:57:42.502Z,86.30
2023-02-11T16:02:42.417Z,86.81
2023-02-11T16:07:42.405Z,86.05
2023-02-11T16:12:42.306Z,86.30
2023-02-11T16:17:42.273Z,86.91
2023-02-11T16:22:42.120Z,87.98
2023-02-11T16:27:42.157Z,86.81
2023-02-11T16:32:42.092Z,86.50
2023-02-11T16:37:42.012Z,87.22
2023-02-11T16:42:41.948Z,87.67
2023-02-11T16:47:41.892Z,87.26
2023-02-11T16:52:41.920Z,87.46
2023-02-11T16:57:41.811Z,87.67
2023-02-11T17:02:41.775Z,87.77
2023-02-11T17:07:41.708Z,88.18
2023-02-11T17:12:41.662Z,88.08
2023-02-11T17:17:41.619Z,88.18
2023-02-11T17:22:41.616Z,87.46
2023-02-11T17:27:41.630Z,88.08
2023-02-11T17:32:45.035Z,87.67
2023-02-11T17:37:41.398Z,87.77
2023-02-11T17:49:51.318Z,87.67
2023-02-11T17:54:51.303Z,87.88
2023-02-11T17:59:51.367Z,88.18
2023-02-11T18:04:51.201Z,88.33
2023-02-11T18:09:51.082Z,88.18
2023-02-11T18:14:51.059Z,88.23
2023-02-11T18:19:50.989Z,88.95
2023-02-11T18:24:50.919Z,89.56
2023-02-11T18:29:50.870Z,88.59
2023-02-11T18:34:50.847Z,88.23
2023-02-11T18:39:50.780Z,88.95
2023-02-11T18:44:50.739Z,89.04
2023-02-11T18:49:50.715Z,89.04
2023-02-11T18:54:50.626Z,89.36
2023-02-11T18:59:50.556Z,89.25
2023-02-11T19:04:50.625Z,89.25
2023-02-11T19:09:50.472Z,88.95
2023-02-11T19:14:50.407Z,88.84
2023-02-11T19:19:50.400Z,89.15
2023-02-11T19:24:50.301Z,89.46
2023-02-11T19:29:50.210Z,89.36
2023-02-11T19:34:50.234Z,89.46
2023-02-11T19:39:50.074Z,89.46
2023-02-11T19:44:50.113Z,89.01
2023-02-11T19:49:50.021Z,88.80
2023-02-11T19:54:49.966Z,88.59
2023-02-11T19:59:49.916Z,88.59
2023-02-11T20:04:49.828Z,88.49
2023-02-11T20:09:49.797Z,88.95
2023-02-11T20:14:49.765Z,88.70
2023-02-11T20:19:49.697Z,88.49
2023-02-11T20:24:49.633Z,89.15
2023-02-11T20:29:49.585Z,88.84
2023-02-11T20:34:49.493Z,89.36
2023-02-11T20:39:49.448Z,88.95
2023-02-11T20:44:49.424Z,88.95
2023-02-11T20:49:49.359Z,89.04
2023-02-11T20:54:49.317Z,88.70
2023-02-11T20:59:49.306Z,88.59
2023-02-11T21:04:49.187Z,88.59
2023-02-11T21:09:49.130Z,88.33
2023-02-11T21:14:49.073Z,89.46
2023-02-11T21:19:49.063Z,89.01
2023-02-11T21:24:48.975Z,88.84
2023-02-11T21:29:54.173Z,89.46
2023-02-11T21:34:49.974Z,88.90
2023-02-11T21:45:57.354Z,88.49
2023-02-11T21:50:57.162Z,88.70
2023-02-11T21:55:57.104Z,88.70
2023-02-11T22:00:57.151Z,88.90
2023-02-11T22:05:57.338Z,88.39
2023-02-11T22:10:57.003Z,89.36
2023-02-11T22:15:57.273Z,88.70
2023-02-11T22:20:56.818Z,88.80
2023-02-11T22:25:57.289Z,88.59
2023-02-11T22:30:56.749Z,87.98
2023-02-11T22:35:56.988Z,88.29
2023-02-11T22:40:56.560Z,87.98
2023-02-11T22:45:57.063Z,88.84
2023-02-11T22:50:56.492Z,88.18
2023-02-11T22:55:56.771Z,87.98
2023-02-11T23:01:03.278Z,87.77
2023-02-11T23:05:56.602Z,88.08
2023-02-11T23:10:56.335Z,88.18
2023-02-11T23:15:56.635Z,87.67
2023-02-11T23:20:56.254Z,87.16
2023-02-11T23:25:56.363Z,87.46
2023-02-11T23:30:56.069Z,87.77
2023-02-11T23:35:56.367Z,88.02
2023-02-11T23:40:55.991Z,87.77
2023-02-11T23:46:04.894Z,86.81
2023-02-11T23:50:55.796Z,87.37
2023-02-11T23:55:56.107Z,87.26
